Fallon Naval Air Station, Van Voorhis Field Fallon US
ICAO: KNFL
IATA: NFL
Category: Medium
Scheduled Services: No

Elevation: 3934 ft
TransAlt. 18000 ft.

Airport Communications:
NAVY FALLON APP/DEP:120.85
ATIS:37.092
CLNC DEL:35.355
GND:25.115
DESERT CON:126.2
BASE OPS:23.8
PMSV METRO:32.74
NAVY FALLON TWR:119.25

KNFL Zoom In..

If you have problems with the map follow the link
https://www.worldairports.se/pages/airport.php?
ICAO=KNFL

Runways:

(A) RW 07 length 7003 ft width 154 ft
---- / hdg 73

(B) RW 13L length 11080 ft width 200 ft
---- / hdg 131

(C) RW 13R length 14005 ft width 201 ft
---- / hdg 131

(D) RW 25 length 7003 ft width 154 ft
---- / hdg 253

(E) RW 31L length 14005 ft width 201 ft
---- / hdg 311

(F) RW 31R length 11080 ft width 200 ft
---- / hdg 311

Location; KNFL
Day. 21 / Time. 18.56 Zulu
* Altimeter: 30.08
* Temperature: 18° c. 64.4°f.
* Wind from: VRB° Speed 05 kn.
Dewpoint: -04° c.
Visibility: 10 Statute Miles.
Clouds: Few 6000 ft.
Clouds: Few 1000 ft.
Clouds: Few 2000 ft.

KNFL 211856Z VRB05KT 10SM FEW060 FEW100 FEW200 18/M04 A3008 RMK AO2 SLP155 T01831039


Wind From VRB°
Speed 05 kn.

 
 
jpsmedia.com for Web Design worldairports.se 2018   terms of use